createdAt,value
2022-11-29T00:00:46.855Z,83.39
2022-11-29T00:05:53.838Z,83.43
2022-11-29T00:11:06.706Z,83.34
2022-11-29T00:16:14.996Z,83.42
2022-11-29T00:21:22.069Z,83.26
2022-11-29T00:26:29.014Z,83.36
2022-11-29T00:31:36.489Z,83.39
2022-11-29T00:36:43.425Z,83.38
2022-11-29T00:41:50.295Z,83.34
2022-11-29T00:46:57.195Z,83.26
2022-11-29T00:52:04.189Z,83.22
2022-11-29T00:57:11.241Z,83.19
2022-11-29T01:02:18.206Z,83.35
2022-11-29T01:07:25.364Z,83.48
2022-11-29T01:12:32.508Z,83.42
2022-11-29T01:17:39.926Z,83.23
2022-11-29T01:22:47.244Z,83.28
2022-11-29T01:27:55.277Z,83.32
2022-11-29T01:33:19.964Z,83.33
2022-11-29T01:38:44.563Z,83.16
2022-11-29T01:44:01.098Z,83.30
2022-11-29T01:49:13.579Z,83.31
2022-11-29T01:54:21.343Z,83.36
2022-11-29T01:59:30.915Z,83.23
2022-11-29T02:04:39.225Z,83.15
2022-11-29T02:09:46.706Z,83.11
2022-11-29T02:15:27.371Z,83.18
2022-11-29T02:21:13.081Z,83.20
2022-11-29T02:26:35.472Z,83.11
2022-11-29T02:32:06.615Z,83.01
2022-11-29T02:37:31.334Z,82.98
2022-11-29T02:43:00.112Z,83.09
2022-11-29T02:48:23.354Z,83.20
2022-11-29T02:53:36.686Z,83.02
2022-11-29T02:58:49.840Z,83.05
2022-11-29T03:04:06.085Z,82.97
2022-11-29T03:09:19.654Z,82.96
2022-11-29T03:14:29.812Z,82.88
2022-11-29T03:20:03.887Z,82.86
2022-11-29T03:25:20.640Z,82.84
2022-11-29T03:30:27.620Z,82.85
2022-11-29T03:35:42.918Z,82.84
2022-11-29T03:40:57.224Z,83.05
2022-11-29T03:46:08.430Z,82.97
2022-11-29T03:51:19.369Z,82.81
2022-11-29T03:56:32.646Z,82.80
2022-11-29T04:02:19.489Z,82.84
2022-11-29T04:07:41.618Z,82.84
2022-11-29T04:13:44.370Z,82.92
2022-11-29T04:19:25.898Z,82.96
2022-11-29T04:24:58.114Z,82.76
2022-11-29T04:30:11.610Z,82.86
2022-11-29T04:35:43.755Z,82.91
2022-11-29T04:41:09.264Z,83.06
2022-11-29T04:46:38.405Z,83.00
2022-11-29T04:52:00.526Z,82.95
2022-11-29T04:57:16.427Z,82.87
2022-11-29T05:02:33.610Z,82.90
2022-11-29T05:07:50.319Z,82.94
2022-11-29T05:13:06.018Z,83.06
2022-11-29T05:18:26.494Z,82.93
2022-11-29T05:23:41.524Z,82.94
2022-11-29T05:28:57.979Z,82.98
2022-11-29T05:34:42.968Z,82.97
2022-11-29T05:40:04.801Z,82.79
2022-11-29T05:45:19.775Z,82.94
2022-11-29T05:50:33.933Z,82.92
2022-11-29T05:55:56.078Z,83.03
2022-11-29T06:01:15.594Z,82.92
2022-11-29T06:06:34.084Z,82.98
2022-11-29T06:11:46.594Z,82.85
2022-11-29T06:17:37.263Z,82.92
2022-11-29T06:23:06.150Z,82.99
2022-11-29T06:28:28.584Z,83.01
2022-11-29T06:33:46.837Z,82.88
2022-11-29T06:38:54.281Z,82.98
2022-11-29T06:44:03.208Z,82.94
2022-11-29T06:49:14.010Z,82.85
2022-11-29T06:54:38.459Z,82.86
2022-11-29T07:00:00.097Z,82.98
2022-11-29T07:05:16.665Z,82.87
2022-11-29T07:10:25.784Z,82.87
2022-11-29T07:15:34.096Z,82.86
2022-11-29T07:20:49.407Z,82.97
2022-11-29T07:26:09.224Z,82.89
2022-11-29T07:31:23.551Z,82.78
2022-11-29T07:36:43.397Z,82.86
2022-11-29T07:42:00.064Z,82.85
2022-11-29T07:47:07.239Z,82.89
2022-11-29T07:52:15.719Z,82.90
2022-11-29T07:57:22.890Z,83.07
2022-11-29T08:02:31.360Z,82.86
2022-11-29T08:07:39.599Z,82.91
2022-11-29T08:12:45.766Z,82.93
2022-11-29T08:17:53.470Z,83.00
2022-11-29T08:23:03.633Z,82.86
2022-11-29T08:28:10.631Z,82.86
2022-11-29T08:33:17.472Z,82.90
2022-11-29T08:38:24.524Z,82.85
2022-11-29T08:43:32.157Z,82.97
2022-11-29T08:48:39.157Z,82.86
2022-11-29T08:53:51.731Z,82.87
2022-11-29T08:58:58.795Z,82.95
2022-11-29T09:04:07.788Z,82.97
2022-11-29T09:09:15.028Z,82.91
2022-11-29T09:14:29.157Z,82.85
2022-11-29T09:19:36.215Z,82.88
2022-11-29T09:24:43.669Z,82.89
2022-11-29T09:29:50.970Z,83.00
2022-11-29T09:34:57.925Z,82.96
2022-11-29T09:40:05.186Z,82.84
2022-11-29T09:45:18.566Z,82.82
2022-11-29T09:50:33.403Z,82.77
2022-11-29T09:55:53.726Z,82.76
2022-11-29T10:01:06.588Z,82.84
2022-11-29T10:06:22.314Z,82.78
2022-11-29T10:11:36.355Z,82.67
2022-11-29T10:16:50.990Z,82.79
2022-11-29T10:22:04.531Z,82.77
2022-11-29T10:27:23.986Z,82.66
2022-11-29T10:32:33.872Z,82.80
2022-11-29T10:37:41.387Z,82.70
2022-11-29T10:42:53.271Z,82.77
2022-11-29T10:48:05.974Z,82.81
2022-11-29T10:53:16.335Z,82.71
2022-11-29T10:58:28.322Z,82.72
2022-11-29T11:03:39.466Z,82.81
2022-11-29T11:08:49.067Z,82.77
2022-11-29T11:14:04.020Z,82.86
2022-11-29T11:19:31.824Z,82.66
2022-11-29T11:24:42.517Z,82.71
2022-11-29T11:29:54.095Z,82.71
2022-11-29T11:35:03.418Z,82.76
2022-11-29T11:40:29.008Z,82.64
2022-11-29T11:45:38.834Z,82.60
2022-11-29T11:50:51.500Z,82.68
2022-11-29T11:56:03.117Z,82.72
2022-11-29T12:01:27.296Z,82.65
2022-11-29T12:06:52.626Z,82.82
2022-11-29T12:12:07.305Z,82.84
2022-11-29T12:17:20.741Z,82.73
2022-11-29T12:22:35.039Z,82.76
2022-11-29T12:27:41.995Z,82.66
2022-11-29T12:33:23.600Z,82.64
2022-11-29T12:38:59.166Z,82.61
2022-11-29T12:44:19.506Z,82.65
2022-11-29T12:49:31.923Z,82.68
2022-11-29T12:54:58.534Z,82.62
2022-11-29T13:00:10.823Z,82.64
2022-11-29T13:05:41.610Z,82.65
2022-11-29T13:11:03.824Z,82.63
2022-11-29T13:16:30.698Z,82.57
2022-11-29T13:21:47.647Z,82.67
2022-11-29T13:26:55.517Z,82.58
2022-11-29T13:32:19.031Z,82.69
2022-11-29T13:37:31.777Z,82.76
2022-11-29T13:42:45.324Z,82.71
2022-11-29T13:47:54.236Z,82.69
2022-11-29T13:53:12.935Z,82.64
2022-11-29T13:58:38.774Z,82.76
2022-11-29T14:03:49.095Z,82.70
2022-11-29T14:09:19.994Z,82.60
2022-11-29T14:14:34.175Z,82.58
2022-11-29T14:19:41.481Z,82.68
2022-11-29T14:25:35.042Z,82.74
2022-11-29T14:30:51.883Z,82.83
2022-11-29T14:36:18.319Z,82.79
2022-11-29T14:41:33.508Z,82.70
2022-11-29T14:46:45.361Z,82.77
2022-11-29T14:52:24.232Z,82.75
2022-11-29T14:58:16.971Z,82.86
2022-11-29T15:03:31.766Z,82.79
2022-11-29T15:08:47.988Z,82.83
2022-11-29T15:14:02.463Z,82.83
2022-11-29T15:19:46.389Z,82.78
2022-11-29T15:24:55.810Z,82.83
2022-11-29T15:30:20.873Z,82.72
2022-11-29T15:35:28.539Z,82.73
2022-11-29T15:40:37.528Z,82.49
2022-11-29T15:45:50.603Z,82.55
2022-11-29T15:51:04.965Z,82.68
2022-11-29T15:56:18.015Z,82.60
2022-11-29T16:01:25.199Z,82.68
2022-11-29T16:06:43.706Z,82.71
2022-11-29T16:11:51.571Z,82.52
2022-11-29T16:17:01.283Z,82.49
2022-11-29T16:22:18.797Z,82.42
2022-11-29T16:27:26.149Z,82.52
2022-11-29T16:32:35.767Z,82.56
2022-11-29T16:37:44.568Z,82.50
2022-11-29T16:43:09.131Z,82.55
2022-11-29T16:48:38.153Z,82.55
2022-11-29T16:53:49.895Z,82.52
2022-11-29T16:59:17.332Z,82.53
2022-11-29T17:04:32.161Z,82.46
2022-11-29T17:09:39.374Z,82.58
2022-11-29T17:14:46.814Z,82.59
2022-11-29T17:19:54.088Z,82.65
2022-11-29T17:25:04.369Z,82.58
2022-11-29T17:30:13.911Z,82.52
2022-11-29T17:42:41.443Z,82.40
2022-11-29T17:48:39.227Z,82.46
2022-11-29T17:53:53.175Z,82.36
2022-11-29T17:59:12.476Z,82.38
2022-11-29T18:04:20.062Z,82.37
2022-11-29T18:09:30.248Z,82.28
2022-11-29T18:14:39.153Z,82.32
2022-11-29T18:19:46.522Z,82.46
2022-11-29T18:25:05.397Z,82.35
2022-11-29T18:30:22.007Z,82.40
2022-11-29T18:35:43.925Z,82.41
2022-11-29T18:40:52.330Z,82.24
2022-11-29T18:46:15.838Z,82.35
2022-11-29T18:51:56.564Z,82.25
2022-11-29T18:57:03.708Z,82.26
2022-11-29T19:02:58.076Z,82.27
2022-11-29T19:29:51.933Z,82.25
2022-11-29T19:35:28.602Z,82.11
2022-11-29T19:40:54.031Z,82.28
2022-11-29T19:46:10.550Z,82.12
2022-11-29T19:51:27.705Z,82.15
2022-11-29T19:56:40.797Z,82.21
2022-11-29T20:02:37.267Z,82.23
2022-11-29T20:22:23.867Z,82.15
2022-11-29T20:27:31.596Z,82.07
2022-11-29T20:32:42.008Z,82.25
2022-11-29T20:38:08.233Z,82.10
2022-11-29T20:43:22.644Z,82.10
2022-11-29T20:48:41.856Z,82.01
2022-11-29T20:53:48.931Z,82.11
2022-11-29T20:58:56.510Z,82.11
2022-11-29T21:04:04.354Z,82.03
2022-11-29T21:09:12.473Z,82.04
2022-11-29T21:14:23.064Z,82.03
2022-11-29T21:19:31.430Z,82.02
2022-11-29T21:24:49.743Z,81.90
2022-11-29T21:29:55.920Z,81.99
2022-11-29T21:35:03.218Z,82.15
2022-11-29T21:40:13.080Z,82.04
2022-11-29T21:45:20.246Z,82.09
2022-11-29T21:50:27.444Z,81.92
2022-11-29T21:55:34.690Z,82.01
2022-11-29T22:00:42.059Z,82.05
2022-11-29T22:05:49.511Z,81.97
2022-11-29T22:11:04.868Z,81.94
2022-11-29T22:16:16.447Z,81.96
2022-11-29T22:21:23.861Z,81.94
2022-11-29T22:26:32.294Z,81.96
2022-11-29T22:31:39.683Z,81.93
2022-11-29T22:36:47.364Z,81.96
2022-11-29T22:41:55.353Z,81.93
2022-11-29T22:47:02.675Z,81.97
2022-11-29T22:52:09.649Z,81.91
2022-11-29T22:57:21.099Z,81.87
2022-11-29T23:02:29.247Z,82.04
2022-11-29T23:07:36.389Z,81.91
2022-11-29T23:12:44.708Z,81.89
2022-11-29T23:17:51.649Z,81.91
2022-11-29T23:22:58.559Z,82.07
2022-11-29T23:28:05.789Z,82.05
2022-11-29T23:33:12.853Z,81.76
2022-11-29T23:38:20.441Z,81.85
2022-11-29T23:43:29.431Z,81.91
2022-11-29T23:48:36.580Z,81.84
2022-11-29T23:53:43.986Z,81.81
2022-11-29T23:58:51.175Z,81.98
